createdAt,value
2022-10-18T00:01:17.376Z,16.93
2022-10-18T00:03:45.114Z,16.91
2022-10-18T00:06:13.097Z,16.88
2022-10-18T00:08:41.110Z,16.88
2022-10-18T00:11:08.979Z,16.85
2022-10-18T00:13:37.658Z,16.83
2022-10-18T00:16:12.607Z,16.83
2022-10-18T00:18:40.826Z,16.81
2022-10-18T00:21:13.926Z,16.79
2022-10-18T00:23:41.766Z,16.76
2022-10-18T00:26:12.356Z,16.76
2022-10-18T00:28:42.236Z,16.75
2022-10-18T00:31:13.358Z,16.73
2022-10-18T00:33:41.926Z,16.73
2022-10-18T00:36:11.172Z,16.67
2022-10-18T00:38:39.536Z,16.70
2022-10-18T00:41:12.091Z,16.71
2022-10-18T00:43:58.285Z,16.72
2022-10-18T00:46:30.708Z,16.70
2022-10-18T00:49:00.965Z,16.70
2022-10-18T00:51:37.650Z,16.71
2022-10-18T00:54:06.015Z,16.72
2022-10-18T00:56:35.483Z,16.72
2022-10-18T00:59:03.903Z,16.70
2022-10-18T01:01:33.211Z,16.66
2022-10-18T01:04:01.186Z,16.67
2022-10-18T01:06:30.039Z,16.69
2022-10-18T01:09:11.099Z,16.67
2022-10-18T01:11:56.984Z,16.66
2022-10-18T01:14:35.928Z,16.64
2022-10-18T01:17:22.630Z,16.63
2022-10-18T01:20:17.153Z,16.63
2022-10-18T01:22:48.995Z,16.63
2022-10-18T01:25:38.016Z,16.62
2022-10-18T01:28:21.233Z,16.66
2022-10-18T01:30:55.844Z,16.69
2022-10-18T01:33:37.127Z,16.69
2022-10-18T01:36:11.118Z,16.66
2022-10-18T01:38:40.614Z,16.66
2022-10-18T01:41:14.860Z,16.67
2022-10-18T01:43:46.436Z,16.64
2022-10-18T01:46:20.829Z,16.61
2022-10-18T01:48:51.790Z,16.61
2022-10-18T01:51:20.676Z,16.58
2022-10-18T01:53:48.546Z,16.57
2022-10-18T01:56:23.737Z,16.54
2022-10-18T01:59:04.624Z,16.56
2022-10-18T02:01:44.390Z,16.58
2022-10-18T02:04:21.600Z,16.62
2022-10-18T02:06:56.062Z,16.65
2022-10-18T02:09:34.679Z,16.67
2022-10-18T02:12:07.357Z,16.62
2022-10-18T02:14:36.070Z,16.55
2022-10-18T02:17:09.051Z,16.53
2022-10-18T02:19:41.446Z,16.50
2022-10-18T02:22:13.218Z,16.50
2022-10-18T02:24:45.708Z,16.48
2022-10-18T02:27:13.894Z,16.35
2022-10-18T02:29:43.107Z,16.49
2022-10-18T02:32:18.580Z,16.48
2022-10-18T02:34:50.845Z,16.45
2022-10-18T02:37:21.129Z,16.45
2022-10-18T02:39:51.248Z,16.29
2022-10-18T02:42:19.477Z,16.45
2022-10-18T02:44:47.240Z,16.43
2022-10-18T02:47:16.692Z,16.44
2022-10-18T02:49:44.441Z,16.43
2022-10-18T02:52:12.275Z,16.41
2022-10-18T02:54:40.059Z,16.41
2022-10-18T02:57:08.475Z,16.40
2022-10-18T02:59:36.275Z,16.41
2022-10-18T03:04:47.331Z,16.39
2022-10-18T03:07:17.880Z,16.38
2022-10-18T03:09:45.866Z,16.35
2022-10-18T03:12:13.953Z,16.34
2022-10-18T03:14:53.595Z,16.35
2022-10-18T03:17:24.480Z,16.31
2022-10-18T03:19:53.559Z,16.30
2022-10-18T03:22:21.403Z,16.28
2022-10-18T03:24:49.255Z,16.27
2022-10-18T03:27:19.399Z,16.27
2022-10-18T03:29:54.764Z,16.27
2022-10-18T03:32:50.008Z,16.26
2022-10-18T03:35:19.430Z,16.25
2022-10-18T03:37:47.482Z,16.23
2022-10-18T03:40:15.465Z,16.22
2022-10-18T03:42:48.694Z,16.23
2022-10-18T03:45:19.473Z,16.22
2022-10-18T03:47:47.338Z,16.21
2022-10-18T03:50:15.290Z,16.16
2022-10-18T03:52:59.272Z,16.15
2022-10-18T03:55:36.042Z,16.13
2022-10-18T03:58:06.075Z,16.13
2022-10-18T04:00:40.344Z,16.14
2022-10-18T04:03:10.077Z,16.12
2022-10-18T04:05:44.005Z,16.11
2022-10-18T04:08:13.523Z,16.09
2022-10-18T04:10:44.366Z,16.01
2022-10-18T04:13:16.097Z,16.06
2022-10-18T04:15:50.021Z,16.08
2022-10-18T04:18:17.821Z,16.06
2022-10-18T04:20:48.103Z,16.06
2022-10-18T04:23:20.104Z,16.07
2022-10-18T04:25:48.567Z,16.02
2022-10-18T04:28:16.553Z,16.06
2022-10-18T04:30:44.449Z,16.07
2022-10-18T04:33:12.371Z,16.05
2022-10-18T04:35:54.357Z,16.07
2022-10-18T04:38:23.536Z,16.06
2022-10-18T04:40:51.480Z,16.04
2022-10-18T04:43:19.610Z,16.01
2022-10-18T04:45:48.110Z,15.79
2022-10-18T04:48:19.415Z,15.97
2022-10-18T04:50:52.146Z,15.96
2022-10-18T04:53:20.616Z,15.95
2022-10-18T04:55:51.176Z,15.96
2022-10-18T04:58:19.859Z,15.95
2022-10-18T05:00:49.061Z,15.95
2022-10-18T05:03:17.690Z,15.93
2022-10-18T05:06:01.948Z,15.92
2022-10-18T05:08:39.876Z,15.91
2022-10-18T05:11:15.405Z,15.90
2022-10-18T05:13:45.946Z,15.87
2022-10-18T05:16:15.961Z,15.69
2022-10-18T05:18:44.148Z,15.86
2022-10-18T05:21:12.746Z,15.87
2022-10-18T05:23:43.718Z,15.87
2022-10-18T05:26:13.769Z,15.84
2022-10-18T05:28:57.038Z,15.85
2022-10-18T05:31:27.034Z,15.87
2022-10-18T05:33:58.150Z,15.87
2022-10-18T05:36:26.159Z,15.87
2022-10-18T05:39:02.616Z,15.87
2022-10-18T05:41:35.598Z,15.86
2022-10-18T05:44:08.496Z,15.72
2022-10-18T05:46:37.288Z,15.85
2022-10-18T05:49:05.246Z,15.80
2022-10-18T05:51:35.581Z,15.81
2022-10-18T05:54:06.197Z,15.79
2022-10-18T05:56:34.262Z,15.77
2022-10-18T05:59:12.296Z,15.79
2022-10-18T06:01:43.947Z,15.78
2022-10-18T06:04:15.059Z,15.75
2022-10-18T06:06:42.901Z,15.82
2022-10-18T06:09:10.819Z,15.82
2022-10-18T06:11:45.935Z,15.85
2022-10-18T06:14:15.153Z,15.87
2022-10-18T06:19:25.181Z,15.89
2022-10-18T06:21:53.104Z,15.86
2022-10-18T06:24:21.680Z,15.85
2022-10-18T06:26:50.049Z,15.83
2022-10-18T06:29:21.792Z,15.82
2022-10-18T06:31:49.691Z,15.79
2022-10-18T06:34:18.080Z,15.83
2022-10-18T06:36:52.879Z,15.81
2022-10-18T06:39:23.088Z,15.83
2022-10-18T06:41:50.844Z,15.83
2022-10-18T06:44:27.564Z,15.85
2022-10-18T06:46:55.318Z,15.87
2022-10-18T06:49:23.335Z,15.89
2022-10-18T06:51:51.355Z,15.89
2022-10-18T06:54:19.472Z,15.87
2022-10-18T06:56:47.638Z,15.87
2022-10-18T06:59:16.093Z,15.86
2022-10-18T07:01:45.655Z,15.86
2022-10-18T07:04:13.638Z,15.88
2022-10-18T07:06:41.742Z,15.86
2022-10-18T07:09:09.601Z,15.82
2022-10-18T07:11:43.011Z,15.96
2022-10-18T07:14:14.038Z,15.93
2022-10-18T07:17:00.242Z,16.00
2022-10-18T07:19:28.411Z,16.02
2022-10-18T07:21:56.211Z,16.04
2022-10-18T07:24:26.490Z,16.03
2022-10-18T07:26:54.782Z,16.04
2022-10-18T07:29:22.661Z,16.09
2022-10-18T07:31:53.561Z,16.10
2022-10-18T07:34:23.208Z,16.11
2022-10-18T07:36:50.979Z,16.14
2022-10-18T07:39:18.803Z,16.17
2022-10-18T07:41:46.565Z,16.26
2022-10-18T07:44:15.386Z,16.32
2022-10-18T07:46:43.191Z,16.43
2022-10-18T07:49:13.809Z,16.42
2022-10-18T07:51:49.633Z,16.42
2022-10-18T07:54:19.867Z,16.50
2022-10-18T07:56:47.892Z,16.57
2022-10-18T07:59:17.363Z,16.55
2022-10-18T08:01:54.393Z,16.57
2022-10-18T08:04:24.782Z,16.62
2022-10-18T08:06:54.107Z,16.69
2022-10-18T08:09:22.396Z,16.82
2022-10-18T08:11:50.291Z,16.97
2022-10-18T08:14:25.447Z,17.16
2022-10-18T08:16:55.464Z,17.33
2022-10-18T08:19:25.869Z,17.51
2022-10-18T08:21:55.084Z,17.60
2022-10-18T08:24:34.648Z,17.54
2022-10-18T08:27:04.354Z,17.83
2022-10-18T08:29:32.335Z,17.90
2022-10-18T08:32:04.392Z,17.91
2022-10-18T08:34:35.378Z,17.80
2022-10-18T08:37:04.762Z,17.70
2022-10-18T08:39:32.612Z,17.52
2022-10-18T08:42:42.724Z,17.33
2022-10-18T08:45:37.297Z,17.16
2022-10-18T08:48:02.418Z,17.13
2022-10-18T08:50:36.765Z,17.08
2022-10-18T08:53:25.123Z,17.04
2022-10-18T08:56:00.422Z,17.06
2022-10-18T08:58:33.416Z,17.07
2022-10-18T09:01:20.677Z,17.10
2022-10-18T09:04:27.571Z,17.05
2022-10-18T09:07:17.279Z,17.03
2022-10-18T09:09:57.352Z,17.05
2022-10-18T09:12:42.673Z,17.03
2022-10-18T09:15:21.371Z,17.03
2022-10-18T09:18:15.117Z,17.07
2022-10-18T09:20:54.028Z,17.07
2022-10-18T09:23:51.638Z,17.09
2022-10-18T09:26:25.872Z,17.18
2022-10-18T09:29:11.776Z,17.28
2022-10-18T09:31:56.100Z,17.32
2022-10-18T09:34:31.840Z,17.26
2022-10-18T09:37:00.758Z,17.24
2022-10-18T09:39:33.200Z,17.25
2022-10-18T09:42:18.443Z,17.35
2022-10-18T09:44:52.227Z,17.38
2022-10-18T09:47:24.825Z,17.43
2022-10-18T09:49:58.999Z,17.45
2022-10-18T09:52:32.161Z,17.44
2022-10-18T09:55:04.462Z,17.54
2022-10-18T09:57:39.538Z,17.59
2022-10-18T10:00:16.419Z,17.64
2022-10-18T10:02:44.497Z,17.62
2022-10-18T10:05:14.526Z,17.64
2022-10-18T10:07:44.723Z,17.62
2022-10-18T10:10:21.329Z,17.63
2022-10-18T10:13:07.730Z,17.75
2022-10-18T10:15:38.175Z,17.85
2022-10-18T10:18:21.879Z,17.87
2022-10-18T10:20:58.286Z,17.87
2022-10-18T10:23:30.579Z,17.94
2022-10-18T10:26:08.156Z,17.86
2022-10-18T10:28:43.622Z,17.99
2022-10-18T10:31:28.497Z,18.16
2022-10-18T10:34:01.474Z,18.13
2022-10-18T10:36:29.844Z,17.97
2022-10-18T10:39:06.627Z,17.74
2022-10-18T10:41:35.405Z,17.63
2022-10-18T10:44:14.943Z,17.62
2022-10-18T10:46:43.628Z,17.77
2022-10-18T10:49:40.066Z,17.97
2022-10-18T10:52:25.927Z,18.34
2022-10-18T10:55:05.812Z,18.44
2022-10-18T10:57:49.729Z,18.60
2022-10-18T11:00:39.425Z,18.61
2022-10-18T11:03:27.863Z,18.44
2022-10-18T11:05:58.094Z,18.28
2022-10-18T11:08:29.518Z,18.07
2022-10-18T11:11:16.950Z,17.96
2022-10-18T11:13:56.935Z,17.83
2022-10-18T11:16:40.531Z,17.99
2022-10-18T11:19:26.372Z,18.03
2022-10-18T11:21:58.248Z,18.12
2022-10-18T11:24:29.139Z,18.11
2022-10-18T11:27:11.338Z,18.14
2022-10-18T11:30:09.475Z,18.14
2022-10-18T11:32:45.361Z,18.09
2022-10-18T11:35:28.709Z,18.02
2022-10-18T11:38:07.542Z,18.04
2022-10-18T11:40:53.681Z,18.03
2022-10-18T11:43:30.311Z,18.06
2022-10-18T11:46:14.735Z,18.07
2022-10-18T11:48:58.787Z,18.13
2022-10-18T11:51:55.909Z,18.11
2022-10-18T11:54:43.675Z,18.12
2022-10-18T11:57:22.305Z,18.11
2022-10-18T12:00:03.455Z,18.19
2022-10-18T12:03:11.182Z,18.19
2022-10-18T12:05:55.339Z,18.21
2022-10-18T12:08:29.240Z,18.21
2022-10-18T12:11:07.072Z,18.22
2022-10-18T12:13:42.394Z,18.19
2022-10-18T12:16:11.984Z,18.21
2022-10-18T12:18:54.822Z,18.21
2022-10-18T12:21:29.425Z,18.16
2022-10-18T12:24:04.035Z,17.95
2022-10-18T12:26:37.052Z,18.03
2022-10-18T12:29:19.281Z,18.07
2022-10-18T12:31:51.217Z,18.10
2022-10-18T12:34:43.949Z,18.20
2022-10-18T12:37:54.987Z,18.28
2022-10-18T12:40:26.557Z,18.33
2022-10-18T12:42:54.754Z,18.32
2022-10-18T12:45:30.253Z,18.30
2022-10-18T12:48:02.076Z,18.31
2022-10-18T12:50:36.198Z,18.31
2022-10-18T12:53:20.251Z,18.29
2022-10-18T12:55:51.521Z,18.28
2022-10-18T12:58:26.424Z,18.27
2022-10-18T13:01:01.111Z,18.26
2022-10-18T13:04:02.226Z,18.22
2022-10-18T13:07:07.923Z,18.27
2022-10-18T13:09:42.071Z,18.27
2022-10-18T13:12:31.544Z,18.23
2022-10-18T13:15:24.687Z,18.23
2022-10-18T13:18:02.525Z,18.13
2022-10-18T13:20:39.915Z,18.10
2022-10-18T13:23:24.345Z,18.00
2022-10-18T13:25:57.919Z,18.05
2022-10-18T13:28:31.917Z,17.91
2022-10-18T13:31:03.950Z,18.02
2022-10-18T13:33:38.843Z,17.96
2022-10-18T13:36:25.979Z,17.93
2022-10-18T13:39:07.251Z,17.97
2022-10-18T13:42:08.833Z,17.99
2022-10-18T13:44:40.002Z,17.96
2022-10-18T13:47:13.676Z,17.94
2022-10-18T13:50:04.011Z,17.89
2022-10-18T13:52:50.231Z,17.90
2022-10-18T13:55:49.813Z,17.88
2022-10-18T13:58:27.581Z,17.96
2022-10-18T14:01:14.266Z,18.00
2022-10-18T14:04:27.277Z,18.08
2022-10-18T14:07:02.350Z,18.10
2022-10-18T14:09:44.184Z,18.16
2022-10-18T14:12:27.672Z,18.14
2022-10-18T14:15:00.846Z,18.05
2022-10-18T14:17:42.786Z,18.10
2022-10-18T14:20:40.100Z,18.06
2022-10-18T14:23:19.987Z,18.06
2022-10-18T14:25:48.981Z,18.05
2022-10-18T14:28:36.310Z,18.06
2022-10-18T14:31:15.108Z,18.04
2022-10-18T14:33:47.110Z,17.99
2022-10-18T14:36:17.325Z,17.96
2022-10-18T14:38:51.834Z,17.94
2022-10-18T14:41:24.809Z,17.92
2022-10-18T14:43:56.049Z,17.93
2022-10-18T14:46:28.980Z,17.94
2022-10-18T14:49:15.965Z,17.92
2022-10-18T14:51:46.492Z,17.92
2022-10-18T14:54:19.543Z,17.90
2022-10-18T14:56:56.352Z,17.84
2022-10-18T14:59:30.591Z,17.77
2022-10-18T15:02:02.038Z,17.70
2022-10-18T15:04:36.557Z,17.65
2022-10-18T15:07:07.608Z,17.61
2022-10-18T15:09:36.986Z,17.56
2022-10-18T15:12:09.705Z,17.49
2022-10-18T15:14:40.920Z,17.43
2022-10-18T15:17:15.868Z,17.38
2022-10-18T15:20:01.791Z,17.31
2022-10-18T15:22:34.018Z,17.21
2022-10-18T15:25:23.750Z,17.14
2022-10-18T15:27:57.123Z,17.07
2022-10-18T15:30:28.125Z,17.01
2022-10-18T15:33:00.106Z,16.92
2022-10-18T15:35:33.491Z,16.86
2022-10-18T15:38:15.994Z,16.77
2022-10-18T15:40:45.112Z,16.67
2022-10-18T15:43:35.810Z,16.58
2022-10-18T15:46:07.501Z,16.45
2022-10-18T15:48:38.229Z,16.37
2022-10-18T15:51:09.858Z,16.28
2022-10-18T15:53:46.195Z,16.20
2022-10-18T15:56:32.190Z,15.99
2022-10-18T15:59:05.272Z,16.02
2022-10-18T16:01:46.140Z,15.93
2022-10-18T16:04:19.481Z,15.86
2022-10-18T16:07:11.028Z,15.79
2022-10-18T16:09:39.212Z,15.73
2022-10-18T16:12:07.020Z,15.49
2022-10-18T16:14:35.244Z,15.61
2022-10-18T16:17:09.182Z,15.50
2022-10-18T16:19:36.951Z,15.40
2022-10-18T16:24:44.755Z,15.29
2022-10-18T16:27:12.851Z,15.22
2022-10-18T16:29:41.542Z,15.16
2022-10-18T16:32:09.548Z,15.02
2022-10-18T16:34:37.436Z,15.06
2022-10-18T16:37:08.598Z,15.00
2022-10-18T16:39:36.687Z,14.94
2022-10-18T16:42:04.709Z,14.88
2022-10-18T16:44:32.751Z,14.83
2022-10-18T16:47:08.023Z,14.76
2022-10-18T16:49:36.187Z,14.73
2022-10-18T16:52:04.070Z,14.71
2022-10-18T16:54:36.479Z,14.65
2022-10-18T16:57:20.735Z,14.56
2022-10-18T16:59:48.609Z,14.52
2022-10-18T17:02:19.504Z,14.48
2022-10-18T17:04:47.355Z,14.46
2022-10-18T17:07:23.961Z,14.43
2022-10-18T17:09:55.760Z,14.38
2022-10-18T17:12:26.452Z,14.34
2022-10-18T17:14:54.873Z,14.26
2022-10-18T17:17:22.934Z,14.20
2022-10-18T17:19:50.967Z,14.16
2022-10-18T17:22:18.766Z,14.14
2022-10-18T17:24:46.685Z,14.12
2022-10-18T17:27:16.014Z,14.09
2022-10-18T17:29:44.126Z,14.06
2022-10-18T17:32:12.865Z,14.00
2022-10-18T17:34:47.907Z,13.94
2022-10-18T17:37:15.977Z,13.91
2022-10-18T17:39:43.843Z,13.85
2022-10-18T17:42:11.950Z,13.79
2022-10-18T17:44:43.194Z,13.78
2022-10-18T17:47:13.981Z,13.60
2022-10-18T17:49:43.783Z,13.71
2022-10-18T17:52:11.763Z,13.69
2022-10-18T17:54:39.768Z,13.66
2022-10-18T17:57:08.053Z,13.64
2022-10-18T17:59:35.866Z,13.61
2022-10-18T18:02:04.984Z,13.43
2022-10-18T18:04:33.005Z,13.59
2022-10-18T18:07:02.560Z,13.57
2022-10-18T18:09:30.682Z,13.50
2022-10-18T18:12:08.968Z,13.48
2022-10-18T18:14:37.789Z,13.47
2022-10-18T18:17:28.656Z,13.44
2022-10-18T18:20:06.873Z,13.39
2022-10-18T18:22:40.445Z,13.34
2022-10-18T18:25:11.108Z,13.31
2022-10-18T18:27:42.653Z,13.30
2022-10-18T18:30:15.283Z,13.26
2022-10-18T18:32:44.698Z,13.22
2022-10-18T18:35:12.792Z,13.23
2022-10-18T18:37:40.772Z,13.20
2022-10-18T18:40:09.763Z,13.22
2022-10-18T18:42:40.054Z,13.24
2022-10-18T18:45:11.144Z,13.22
2022-10-18T18:47:39.832Z,13.22
2022-10-18T18:50:14.380Z,13.21
2022-10-18T18:52:43.153Z,13.19
2022-10-18T18:55:12.773Z,13.14
2022-10-18T18:57:46.437Z,13.09
2022-10-18T19:00:15.801Z,13.06
2022-10-18T19:02:44.489Z,13.01
2022-10-18T19:07:54.862Z,12.91
2022-10-18T19:10:22.774Z,12.87
2022-10-18T19:12:50.803Z,12.84
2022-10-18T19:15:19.758Z,12.82
2022-10-18T19:17:47.645Z,12.80
2022-10-18T19:20:17.654Z,12.82
2022-10-18T19:22:47.337Z,12.80
2022-10-18T19:25:16.975Z,12.76
2022-10-18T19:27:56.593Z,12.71
2022-10-18T19:30:24.642Z,12.64
2022-10-18T19:33:07.698Z,12.58
2022-10-18T19:35:52.042Z,12.43
2022-10-18T19:38:24.196Z,12.53
2022-10-18T19:40:54.308Z,12.59
2022-10-18T19:43:22.232Z,12.63
2022-10-18T19:45:51.418Z,12.73
2022-10-18T19:48:25.543Z,12.82
2022-10-18T19:51:09.423Z,12.85
2022-10-18T19:53:39.452Z,12.95
2022-10-18T19:56:10.457Z,13.04
2022-10-18T19:58:59.991Z,13.10
2022-10-18T20:01:30.229Z,13.13
2022-10-18T20:03:58.861Z,13.14
2022-10-18T20:09:14.781Z,13.26
2022-10-18T20:11:54.980Z,13.23
2022-10-18T20:14:22.995Z,13.24
2022-10-18T20:16:50.895Z,13.21
2022-10-18T20:19:21.973Z,13.16
2022-10-18T20:21:58.826Z,13.20
2022-10-18T20:24:30.312Z,13.21
2022-10-18T20:27:00.687Z,13.27
2022-10-18T20:29:30.058Z,13.24
2022-10-18T20:31:57.875Z,13.34
2022-10-18T20:34:28.343Z,13.32
2022-10-18T20:36:57.008Z,13.35
2022-10-18T20:39:28.368Z,13.41
2022-10-18T20:42:05.080Z,13.43
2022-10-18T20:44:37.831Z,13.42
2022-10-18T20:47:06.007Z,13.30
2022-10-18T20:49:33.891Z,13.16
2022-10-18T20:52:04.850Z,13.31
2022-10-18T20:54:32.575Z,13.28
2022-10-18T20:57:04.001Z,13.32
2022-10-18T20:59:33.909Z,13.32
2022-10-18T21:02:01.777Z,13.34
2022-10-18T21:04:32.605Z,13.32
2022-10-18T21:07:01.077Z,13.32
2022-10-18T21:09:35.027Z,13.27
2022-10-18T21:12:06.852Z,13.24
2022-10-18T21:14:34.737Z,13.20
2022-10-18T21:17:05.384Z,13.16
2022-10-18T21:19:33.491Z,13.10
2022-10-18T21:22:04.465Z,13.08
2022-10-18T21:24:46.808Z,13.05
2022-10-18T21:27:16.229Z,13.03
2022-10-18T21:29:44.035Z,12.99
2022-10-18T21:32:11.935Z,12.98
2022-10-18T21:34:48.826Z,12.89
2022-10-18T21:37:16.754Z,12.93
2022-10-18T21:39:44.528Z,12.98
2022-10-18T21:42:13.548Z,12.99
2022-10-18T21:44:42.792Z,12.98
2022-10-18T21:47:12.753Z,12.96
2022-10-18T21:49:40.634Z,12.97
2022-10-18T21:52:08.374Z,12.96
2022-10-18T21:54:36.152Z,12.99
2022-10-18T21:57:06.788Z,12.98
2022-10-18T21:59:54.999Z,12.92
2022-10-18T22:02:22.756Z,12.93
2022-10-18T22:04:53.666Z,12.96
2022-10-18T22:07:21.516Z,12.97
2022-10-18T22:09:49.318Z,12.98
2022-10-18T22:12:24.655Z,12.97
2022-10-18T22:15:04.824Z,12.96
2022-10-18T22:17:32.879Z,12.92
2022-10-18T22:20:01.124Z,12.91
2022-10-18T22:22:36.071Z,12.88
2022-10-18T22:25:03.991Z,12.87
2022-10-18T22:27:32.670Z,12.85
2022-10-18T22:30:01.979Z,12.84
2022-10-18T22:32:29.731Z,12.82
2022-10-18T22:35:00.649Z,12.78
2022-10-18T22:37:28.474Z,12.74
2022-10-18T22:39:59.558Z,12.72
2022-10-18T22:42:27.390Z,12.67
2022-10-18T22:44:57.615Z,12.63
2022-10-18T22:47:26.734Z,12.59
2022-10-18T22:49:54.601Z,12.50
2022-10-18T22:52:22.362Z,12.43
2022-10-18T22:54:53.154Z,12.37
2022-10-18T22:57:28.171Z,12.32
2022-10-18T22:59:56.501Z,12.27
2022-10-18T23:02:24.295Z,12.23
2022-10-18T23:04:53.415Z,12.19
2022-10-18T23:07:21.225Z,12.16
2022-10-18T23:09:48.973Z,11.89
2022-10-18T23:12:16.756Z,12.07
2022-10-18T23:14:51.840Z,12.06
2022-10-18T23:17:19.674Z,12.05
2022-10-18T23:19:47.983Z,12.01
2022-10-18T23:22:21.170Z,12.00
2022-10-18T23:24:48.964Z,11.98
2022-10-18T23:27:16.934Z,11.95
2022-10-18T23:29:47.751Z,11.95
2022-10-18T23:32:15.460Z,11.98
2022-10-18T23:34:49.329Z,12.02
2022-10-18T23:37:20.801Z,12.06
2022-10-18T23:39:48.616Z,12.09
2022-10-18T23:42:16.578Z,12.12
2022-10-18T23:44:47.986Z,12.13
2022-10-18T23:47:18.917Z,12.14
2022-10-18T23:49:46.781Z,12.14
2022-10-18T23:52:24.747Z,12.16
2022-10-18T23:54:52.523Z,12.16
2022-10-18T23:57:20.351Z,12.20
2022-10-18T23:59:54.377Z,12.26
